Schulenburg, TX (78956)

5:26 AM CDT on September 18, 2014 (GMT -0500)
KTXMULDO2 | Change Station
CLOSE
Current Station
Personal Weather Station
Location: Muldoon, TX
Elevation: 456 ft
Nearby Weather Stations
Active Advisory: Flash Flood Watch

Elev 456 ft 29.79 °N, 97.02 °W | Updated 1 minute ago

Rain
Rain
76.9 °F
Feels Like 78 °F
N
0.0
Wind Variable Wind from SE
Gusts 3.0 mph

Today
High -- | Low -- °F
--% Chance of Precip.
Yesterday
High -- | Low -- °F
Precip. -- in
7:13 AM 7:29 PM
Waning Crescent, 28% visible
Pressure 29.84 in
Visibility 5.0 miles
Clouds Mostly Cloudy 500 ft
Overcast 800 ft
Heat Index 78 °F
Dew Point 70 °F
Humidity 80%
Rainfall 0.10 in
Snow Depth Not available.
UV 0 out of 12
Pollen 8.60 out of 12
Air Quality Not available.
Flu Activity Not available.
METAR K3T5 181015Z AUTO 18006KT 5SM VCTSRA BKN005 OVC008 26/26 A2984 RMK AO2 LTG DSNT W P0003 T02600257

More Conditions Fewer Conditions

Pressure 29.84 in
Visibility 5.0 miles
Clouds Mostly Cloudy 500 ft
Overcast 800 ft
Heat Index 78 °F
Dew Point 70 °F
Humidity 80%
Rainfall 0.10 in
Snow Depth Not available.
UV 0 out of 12
Pollen 8.60 out of 12
Air Quality Not available.
Flu Activity Not available.
METAR K3T5 181015Z AUTO 18006KT 5SM VCTSRA BKN005 OVC008 26/26 A2984 RMK AO2 LTG DSNT W P0003 T02600257

More Conditions Fewer Conditions

10-Day Weather Forecast

Almanac

Astronomy

Sep. 18, 2014 Rise Set
Actual Time 7:13 AM CDT 7:29 PM CDT
Civil Twilight 6:50 AM CDT 7:52 PM CDT
Nautical Twilight 6:22 AM CDT 8:20 PM CDT
Astronomical Twilight 5:54 AM CDT 8:48 PM CDT
Moon 2:24 AM CDT 4:05 PM CDT
Length of Visible Light 13h 02m
Length of Day
12h 15m
Tomorrow will be 1m 47s shorter.
Waning Crescent, 28% of the Moon is Illuminated
Today
Waning Crescent
Sep 24
New
Oct 1
First Quarter
Oct 8
Full
Oct 15
Last Quarter

Today's Extremes

State Highs State Lows

Community

WunderPhotos

Upload Photos

1,754,314 photos uploaded!

Nearby

Snow Depth

Station Depth Elevation
No new snow has been reported.

Earthquake Activity

City Distance Mag. Time & Date
No recent earthquake activity has been reported nearby.
Minimum magnitude displayed is 2.5.

Coastal Water Temperatures

Place Temperature
No Stations Reporting

Nearby Weather Stations